Time;durP1;ratioP1;P1;durP2;ratioP2;P2;SDS_P1;SDS_P2;PMS_P1;PMS_P2;Temp;Humidity;BMP_temperature;BMP_pressure;BME280_temperature;BME280_humidity;BME280_pressure;Samples;Min_cycle;Max_cycle;Signal;HPM_P1;HPM_P2
2021/09/17 00:01:22;;;;;;;17.80;16.40;;;14.70;99.90;;;;;;5032826;28;20254;-77
2021/09/17 00:03:48;;;;;;;17.37;16.07;;;14.60;99.90;;;;;;5015430;28;20703;-76
2021/09/17 00:06:15;;;;;;;17.87;16.33;;;14.60;99.90;;;;;;5015078;28;20211;-76
2021/09/17 00:08:42;;;;;;;17.90;16.47;;;14.60;99.90;;;;;;5032505;28;20242;-76
2021/09/17 00:11:09;;;;;;;17.63;16.03;;;14.60;99.90;;;;;;5033120;28;20255;-76
2021/09/17 00:13:36;;;;;;;18.43;16.83;;;14.60;99.90;;;;;;5032457;28;20224;-77
2021/09/17 00:16:05;;;;;;;18.00;16.60;;;14.60;99.90;;;;;;5032691;28;20220;-76
2021/09/17 00:18:32;;;;;;;17.80;16.40;;;14.50;99.90;;;;;;5014680;28;20208;-77
2021/09/17 00:20:59;;;;;;;18.23;16.43;;;14.60;99.90;;;;;;5025890;28;20238;-76
2021/09/17 00:23:25;;;;;;;17.60;15.87;;;14.50;99.90;;;;;;5032445;28;20228;-76
2021/09/17 00:25:52;;;;;;;17.20;15.80;;;14.50;99.90;;;;;;5032186;28;20196;-76
2021/09/17 00:28:19;;;;;;;17.63;16.23;;;14.50;99.90;;;;;;5014689;28;20274;-77
2021/09/17 00:30:46;;;;;;;18.20;16.80;;;14.50;99.90;;;;;;5032160;28;20205;-76
2021/09/17 00:33:14;;;;;;;17.50;16.10;;;14.50;99.90;;;;;;5032366;28;20766;-77
2021/09/17 00:35:41;;;;;;;17.40;16.00;;;14.50;99.90;;;;;;5032057;28;20216;-76
2021/09/17 00:38:08;;;;;;;17.07;15.63;;;14.40;99.90;;;;;;5014312;28;20211;-76
2021/09/17 00:40:35;;;;;;;17.33;16.03;;;14.40;99.90;;;;;;5014320;28;20199;-77
2021/09/17 00:43:01;;;;;;;17.50;16.10;;;14.50;99.90;;;;;;5032157;28;20270;-77
2021/09/17 00:45:28;;;;;;;18.07;16.67;;;14.50;99.90;;;;;;5014373;28;20227;-76
2021/09/17 00:47:55;;;;;;;17.43;16.13;;;14.40;99.90;;;;;;5031893;28;20192;-77
2021/09/17 00:50:23;;;;;;;18.10;16.60;;;14.40;99.90;;;;;;5032085;28;20669;-76
2021/09/17 00:52:51;;;;;;;17.63;16.23;;;14.40;99.90;;;;;;5010426;28;20644;-76
2021/09/17 00:55:19;;;;;;;17.97;16.37;;;14.40;99.90;;;;;;5014165;28;20228;-77
2021/09/17 00:57:46;;;;;;;17.40;16.03;;;14.40;99.90;;;;;;5031717;28;20203;-76
2021/09/17 01:00:15;;;;;;;17.33;16.07;;;14.40;99.90;;;;;;5014326;28;20204;-77
2021/09/17 01:02:42;;;;;;;16.37;15.23;;;14.50;99.90;;;;;;5054764;23;20228;-80
2021/09/17 01:05:11;;;;;;;16.67;15.47;;;14.40;99.90;;;;;;5005863;28;20633;-80
2021/09/17 01:07:39;;;;;;;18.27;16.77;;;14.40;99.90;;;;;;5023682;28;20731;-80
2021/09/17 01:10:07;;;;;;;16.70;15.37;;;14.40;99.90;;;;;;5024355;28;20199;-80
2021/09/17 01:12:34;;;;;;;16.83;15.63;;;14.30;99.90;;;;;;5004642;28;20572;-80
2021/09/17 01:15:01;;;;;;;17.30;15.80;;;14.30;99.90;;;;;;4996065;28;20224;-80
2021/09/17 01:17:32;;;;;;;17.87;16.47;;;14.30;99.90;;;;;;4997622;28;20200;-80
2021/09/17 01:19:59;;;;;;;17.47;16.07;;;14.30;99.90;;;;;;4996183;28;20207;-80
2021/09/17 01:22:27;;;;;;;16.77;15.50;;;14.30;99.90;;;;;;4993739;28;20220;-80
2021/09/17 01:24:54;;;;;;;16.63;15.33;;;14.40;99.90;;;;;;5015844;28;20195;-80
2021/09/17 01:27:23;;;;;;;19.00;17.33;;;14.30;99.90;;;;;;4994695;28;20220;-80
2021/09/17 01:29:50;;;;;;;17.80;16.40;;;14.30;99.90;;;;;;4993470;28;20235;-80
2021/09/17 01:32:17;;;;;;;17.90;16.43;;;14.30;99.90;;;;;;5015766;28;20232;-80
2021/09/17 01:34:43;;;;;;;18.83;17.23;;;14.30;99.90;;;;;;4997143;28;20249;-80
2021/09/17 01:37:10;;;;;;;15.60;14.20;;;14.30;99.90;;;;;;4993090;28;20212;-80
2021/09/17 01:39:38;;;;;;;11.17;10.07;;;14.30;99.90;;;;;;5017579;28;20199;-80
2021/09/17 01:42:05;;;;;;;9.43;8.40;;;14.30;99.90;;;;;;5016547;28;20332;-80
2021/09/17 01:44:37;;;;;;;11.67;10.63;;;14.30;99.90;;;;;;5009935;28;20271;-80
2021/09/17 01:47:04;;;;;;;9.57;8.57;;;14.30;99.90;;;;;;5014222;28;20662;-79
2021/09/17 01:49:31;;;;;;;11.37;8.50;;;14.30;99.90;;;;;;5014923;28;20212;-80
2021/09/17 01:51:58;;;;;;;11.07;9.80;;;14.30;99.90;;;;;;5001707;28;20264;-80
2021/09/17 01:54:25;;;;;;;16.60;15.20;;;14.20;99.90;;;;;;4999137;28;20676;-80
2021/09/17 01:56:54;;;;;;;17.83;16.43;;;14.20;99.90;;;;;;5014133;28;20212;-80
2021/09/17 01:59:21;;;;;;;10.47;9.47;;;14.20;99.90;;;;;;4993851;28;20206;-80
2021/09/17 02:01:48;;;;;;;16.70;15.43;;;14.30;99.90;;;;;;5016019;28;20673;-80
2021/09/17 02:04:16;;;;;;;11.23;10.23;;;14.30;99.90;;;;;;4999337;28;20235;-80
2021/09/17 02:06:43;;;;;;;10.13;8.57;;;14.30;99.90;;;;;;4991684;28;20212;-80
2021/09/17 02:09:09;;;;;;;16.60;15.40;;;14.30;99.90;;;;;;5002719;28;20208;-80
2021/09/17 02:11:36;;;;;;;16.93;15.63;;;14.30;99.90;;;;;;5014139;28;20209;-80
2021/09/17 02:14:04;;;;;;;16.33;15.13;;;14.20;99.90;;;;;;5006253;28;20705;-80
2021/09/17 02:16:31;;;;;;;16.53;15.13;;;14.20;99.90;;;;;;5000621;28;20248;-80
2021/09/17 02:18:58;;;;;;;17.53;16.03;;;14.20;99.90;;;;;;4995939;28;20745;-80
2021/09/17 02:21:25;;;;;;;16.93;15.73;;;14.20;99.90;;;;;;4995268;28;20620;-80
2021/09/17 02:23:52;;;;;;;17.50;15.83;;;14.20;99.90;;;;;;5000545;28;20263;-80
2021/09/17 02:26:19;;;;;;;13.57;12.47;;;14.30;99.90;;;;;;5003786;28;20212;-80
2021/09/17 02:28:46;;;;;;;13.50;12.30;;;14.20;99.90;;;;;;5004280;28;20196;-80
2021/09/17 02:31:15;;;;;;;8.50;7.60;;;14.20;99.90;;;;;;5015813;28;20205;-80
2021/09/17 02:33:42;;;;;;;7.97;7.17;;;14.20;99.90;;;;;;5003327;28;20221;-79
2021/09/17 02:36:09;;;;;;;10.87;9.87;;;14.20;99.90;;;;;;5021734;28;20269;-79
2021/09/17 02:38:36;;;;;;;9.97;9.17;;;14.20;99.90;;;;;;5022606;28;20610;-80
2021/09/17 02:41:03;;;;;;;8.07;7.27;;;14.20;99.90;;;;;;5008828;28;20544;-77
2021/09/17 02:43:31;;;;;;;8.43;7.63;;;14.20;99.90;;;;;;5012973;28;20277;-78
2021/09/17 02:45:59;;;;;;;8.70;8.00;;;14.10;99.90;;;;;;5002478;28;20203;-80
2021/09/17 02:48:27;;;;;;;13.27;12.37;;;14.20;99.90;;;;;;5005162;28;20204;-79
2021/09/17 02:50:54;;;;;;;8.50;7.80;;;14.10;99.90;;;;;;4996574;28;20249;-79
2021/09/17 02:53:21;;;;;;;8.87;8.17;;;14.10;99.90;;;;;;5010355;28;20223;-79
2021/09/17 02:55:47;;;;;;;12.47;11.47;;;14.10;99.90;;;;;;4998280;28;20574;-80
2021/09/17 02:58:15;;;;;;;15.50;14.43;;;14.10;99.90;;;;;;4978477;28;20213;-79
2021/09/17 03:00:42;;;;;;;13.60;12.60;;;14.10;99.90;;;;;;4979901;28;20201;-78
2021/09/17 03:03:09;;;;;;;11.87;10.97;;;14.10;99.90;;;;;;4978596;28;20662;-78
2021/09/17 03:05:38;;;;;;;11.43;10.53;;;14.10;99.90;;;;;;5003596;28;20197;-82
2021/09/17 03:08:05;;;;;;;10.70;9.80;;;14.10;99.90;;;;;;4997053;28;20615;-79
2021/09/17 03:10:32;;;;;;;11.60;10.70;;;14.10;99.90;;;;;;4997996;28;20197;-83
2021/09/17 03:12:59;;;;;;;11.27;10.47;;;14.10;99.90;;;;;;5018125;28;20231;-79
2021/09/17 03:15:26;;;;;;;10.67;9.77;;;14.10;99.90;;;;;;5024759;28;20248;-80
2021/09/17 03:17:53;;;;;;;11.90;10.90;;;14.00;99.90;;;;;;4998073;28;20237;-79
2021/09/17 03:20:20;;;;;;;12.93;11.93;;;14.10;99.90;;;;;;5014828;28;20613;-78
2021/09/17 03:22:49;;;;;;;11.90;10.90;;;14.10;99.90;;;;;;5014250;28;20735;-80
2021/09/17 03:25:16;;;;;;;16.93;15.53;;;14.10;99.90;;;;;;5013676;28;20246;-78
2021/09/17 03:27:43;;;;;;;17.57;16.23;;;14.10;99.90;;;;;;5019603;28;20196;-77
2021/09/17 03:30:11;;;;;;;17.03;15.73;;;14.00;99.90;;;;;;5015208;28;20210;-77
2021/09/17 03:32:39;;;;;;;12.30;11.30;;;14.00;99.90;;;;;;5013094;28;20254;-78
2021/09/17 03:35:07;;;;;;;17.03;15.83;;;14.00;99.90;;;;;;5016423;28;20197;-78
2021/09/17 03:37:34;;;;;;;16.13;15.00;;;14.00;99.90;;;;;;5000732;28;20221;-78
2021/09/17 03:40:02;;;;;;;16.83;15.73;;;14.00;99.90;;;;;;5024127;28;20196;-80
2021/09/17 03:42:29;;;;;;;15.60;14.50;;;14.00;99.90;;;;;;5028420;28;20219;-78
2021/09/17 03:44:56;;;;;;;15.63;14.43;;;14.10;99.90;;;;;;4993011;28;20660;-77
2021/09/17 03:47:23;;;;;;;15.83;14.67;;;14.10;99.90;;;;;;5002898;28;20206;-77
2021/09/17 03:49:50;;;;;;;16.30;15.10;;;14.10;99.90;;;;;;5005649;28;20249;-77
2021/09/17 03:52:19;;;;;;;18.93;17.07;;;14.10;99.90;;;;;;4995926;28;20291;-77
2021/09/17 03:54:46;;;;;;;18.10;16.70;;;14.10;99.90;;;;;;5021175;28;20565;-77
2021/09/17 03:57:16;;;;;;;18.67;17.07;;;14.10;99.90;;;;;;5001227;28;20275;-77
2021/09/17 03:59:43;;;;;;;17.90;16.27;;;14.10;99.90;;;;;;5012954;28;20279;-77
2021/09/17 04:02:10;;;;;;;17.70;16.37;;;14.10;99.90;;;;;;4989292;28;20262;-79
2021/09/17 04:04:39;;;;;;;18.50;16.73;;;14.10;99.90;;;;;;5002813;28;20205;-78
2021/09/17 04:07:06;;;;;;;17.50;16.30;;;14.10;99.90;;;;;;5006774;28;20210;-78
2021/09/17 04:09:33;;;;;;;17.43;16.20;;;14.10;99.90;;;;;;4986845;28;20771;-79
2021/09/17 04:12:00;;;;;;;17.03;15.70;;;14.10;99.90;;;;;;4992153;28;20216;-77
2021/09/17 04:14:28;;;;;;;16.50;15.37;;;14.10;99.90;;;;;;4994419;28;20739;-77
2021/09/17 04:16:55;;;;;;;16.63;15.57;;;14.10;99.90;;;;;;5025180;28;20618;-77
2021/09/17 04:19:22;;;;;;;16.77;15.67;;;14.10;99.90;;;;;;5008302;28;20545;-77
2021/09/17 04:21:48;;;;;;;16.17;14.90;;;14.10;99.90;;;;;;4993311;28;20211;-77
2021/09/17 04:24:15;;;;;;;16.20;15.10;;;14.10;99.90;;;;;;4994111;28;20300;-77
2021/09/17 04:26:42;;;;;;;15.10;14.13;;;14.00;99.90;;;;;;5001089;28;20190;-77
2021/09/17 04:29:09;;;;;;;15.33;14.33;;;14.10;99.90;;;;;;5025631;28;20233;-77
2021/09/17 04:31:37;;;;;;;15.33;14.23;;;14.00;99.90;;;;;;4997730;28;20196;-77
2021/09/17 04:34:04;;;;;;;14.93;13.90;;;14.10;99.90;;;;;;5014264;28;20220;-77
2021/09/17 04:36:30;;;;;;;15.27;14.27;;;14.10;99.90;;;;;;5007166;28;20731;-77
2021/09/17 04:38:57;;;;;;;16.33;15.13;;;14.10;99.90;;;;;;5024676;28;20661;-77
2021/09/17 04:41:24;;;;;;;15.70;14.60;;;14.10;99.90;;;;;;4991729;28;20264;-77
2021/09/17 04:43:51;;;;;;;16.37;15.27;;;14.10;99.90;;;;;;4991386;28;20231;-77
2021/09/17 04:46:18;;;;;;;16.43;15.33;;;14.10;99.90;;;;;;5020126;28;20207;-77
2021/09/17 04:48:46;;;;;;;16.20;15.10;;;14.10;99.90;;;;;;5004586;28;20913;-77
2021/09/17 04:51:12;;;;;;;16.97;15.77;;;14.00;99.90;;;;;;5001764;28;20558;-77
2021/09/17 04:53:39;;;;;;;15.47;14.47;;;14.00;99.90;;;;;;5004688;28;20216;-77
2021/09/17 04:56:06;;;;;;;15.70;14.63;;;14.00;99.90;;;;;;4997884;28;20218;-77
2021/09/17 04:58:33;;;;;;;16.73;15.47;;;14.00;99.90;;;;;;5005207;28;20203;-77
2021/09/17 05:01:00;;;;;;;16.70;15.50;;;14.10;99.90;;;;;;5011120;28;20253;-77
2021/09/17 05:03:26;;;;;;;19.80;18.40;;;14.00;99.90;;;;;;5007495;28;20228;-77
2021/09/17 05:05:54;;;;;;;17.57;16.27;;;14.00;99.90;;;;;;5001175;28;20200;-77
2021/09/17 05:08:21;;;;;;;18.77;17.30;;;14.00;99.90;;;;;;5012384;28;20193;-77
2021/09/17 05:10:48;;;;;;;18.10;16.83;;;14.00;99.90;;;;;;5017956;28;20252;-77
2021/09/17 05:13:15;;;;;;;17.87;16.53;;;14.00;99.90;;;;;;4995699;28;20228;-77
2021/09/17 05:15:42;;;;;;;18.00;16.70;;;14.00;99.90;;;;;;5011580;28;20665;-77
2021/09/17 05:18:09;;;;;;;17.63;16.43;;;14.10;99.90;;;;;;5021003;28;20223;-77
2021/09/17 05:20:36;;;;;;;17.63;16.30;;;14.10;99.90;;;;;;5017547;28;20202;-77
2021/09/17 05:23:05;;;;;;;17.60;16.20;;;14.10;99.90;;;;;;4993236;28;20262;-77
2021/09/17 05:25:31;;;;;;;17.43;16.17;;;14.10;99.90;;;;;;4990366;28;20254;-77
2021/09/17 05:27:58;;;;;;;17.77;16.27;;;14.10;99.90;;;;;;5020006;28;20195;-77
2021/09/17 05:30:25;;;;;;;17.03;15.83;;;14.10;99.90;;;;;;5020222;28;20243;-77
2021/09/17 05:32:52;;;;;;;17.60;16.30;;;14.20;99.90;;;;;;5019522;28;20216;-78
2021/09/17 05:35:19;;;;;;;16.80;15.60;;;14.20;99.90;;;;;;5017341;28;20197;-78
2021/09/17 05:37:46;;;;;;;17.20;15.80;;;14.20;99.90;;;;;;5018148;28;20205;-77
2021/09/17 05:40:15;;;;;;;15.73;14.70;;;14.20;99.90;;;;;;5036261;28;20184;-78
2021/09/17 05:42:42;;;;;;;17.00;15.70;;;14.20;99.90;;;;;;5004593;28;20220;-77
2021/09/17 05:45:10;;;;;;;17.37;16.00;;;14.20;99.90;;;;;;5014577;28;20207;-77
2021/09/17 05:47:37;;;;;;;16.83;15.73;;;14.20;99.90;;;;;;4990165;28;20693;-77
2021/09/17 05:50:04;;;;;;;16.77;15.57;;;14.30;99.90;;;;;;5019657;28;20199;-77
2021/09/17 05:52:31;;;;;;;16.97;15.80;;;14.40;99.90;;;;;;5013467;28;20221;-77
2021/09/17 05:54:58;;;;;;;17.00;15.80;;;14.40;99.90;;;;;;5001921;28;20200;-77
2021/09/17 05:57:26;;;;;;;17.30;16.20;;;14.50;99.90;;;;;;5020532;28;20715;-77
2021/09/17 05:59:53;;;;;;;12.73;11.83;;;14.50;99.90;;;;;;5023570;28;20489;-77
2021/09/17 06:02:20;;;;;;;10.70;9.80;;;14.50;99.90;;;;;;5019467;28;20223;-77
2021/09/17 06:04:46;;;;;;;12.97;11.97;;;14.50;99.90;;;;;;5010521;28;20196;-76
2021/09/17 06:07:13;;;;;;;9.40;8.67;;;14.60;99.90;;;;;;5008503;28;20206;-77
2021/09/17 06:09:40;;;;;;;11.27;10.10;;;14.60;99.90;;;;;;5015079;28;20608;-77
2021/09/17 06:12:08;;;;;;;9.17;7.40;;;14.80;99.90;;;;;;5003127;28;20252;-77
2021/09/17 06:14:36;;;;;;;7.87;7.07;;;14.80;99.90;;;;;;5022547;28;20250;-77
2021/09/17 06:17:03;;;;;;;8.10;7.40;;;14.80;99.90;;;;;;5017604;28;20712;-78
2021/09/17 06:19:30;;;;;;;7.77;6.97;;;14.90;99.90;;;;;;5006251;28;20258;-78
2021/09/17 06:21:57;;;;;;;13.50;12.50;;;14.80;99.90;;;;;;5008465;28;20218;-77
2021/09/17 06:24:23;;;;;;;7.53;6.80;;;14.80;99.90;;;;;;5021592;28;20250;-77
2021/09/17 06:26:50;;;;;;;8.00;7.20;;;14.90;99.90;;;;;;4998666;28;20264;-77
2021/09/17 06:29:17;;;;;;;7.33;6.63;;;14.90;99.90;;;;;;5012001;28;20215;-77
2021/09/17 06:31:46;;;;;;;8.10;6.90;;;14.90;99.90;;;;;;5019872;28;20197;-77
2021/09/17 06:34:12;;;;;;;11.90;10.90;;;14.90;99.90;;;;;;5026249;28;20636;-78
2021/09/17 06:36:39;;;;;;;16.50;15.27;;;14.90;99.90;;;;;;5016315;28;20204;-77
2021/09/17 06:39:06;;;;;;;16.00;14.80;;;14.90;99.90;;;;;;5023925;28;20614;-77
2021/09/17 06:41:33;;;;;;;13.37;12.27;;;14.90;99.90;;;;;;4999967;28;20250;-77
2021/09/17 06:44:00;;;;;;;17.50;16.07;;;15.00;99.90;;;;;;5002904;28;20235;-77
2021/09/17 06:46:27;;;;;;;8.60;7.30;;;15.10;99.90;;;;;;5005040;28;20225;-77
2021/09/17 06:48:55;;;;;;;7.10;6.40;;;15.10;99.90;;;;;;5014823;28;20207;-77
2021/09/17 06:51:22;;;;;;;14.00;13.00;;;15.10;99.90;;;;;;5020554;28;20270;-77
2021/09/17 06:53:49;;;;;;;9.30;7.83;;;15.20;99.90;;;;;;5024742;28;20570;-77
2021/09/17 06:56:15;;;;;;;8.73;7.43;;;15.20;99.90;;;;;;5002983;28;20197;-77
2021/09/17 06:58:42;;;;;;;15.57;14.30;;;15.30;99.90;;;;;;5028419;28;20286;-77
2021/09/17 07:01:09;;;;;;;14.30;13.30;;;15.30;99.90;;;;;;5017978;28;20247;-77
2021/09/17 07:03:36;;;;;;;9.27;8.37;;;15.30;99.90;;;;;;5014317;23;20228;-77
2021/09/17 07:06:04;;;;;;;7.90;7.10;;;15.40;99.90;;;;;;5006171;28;20729;-76
2021/09/17 07:08:31;;;;;;;9.13;8.23;;;15.40;99.90;;;;;;4993279;28;20190;-76
2021/09/17 07:10:58;;;;;;;8.93;7.67;;;15.50;99.90;;;;;;5001664;28;20193;-76
2021/09/17 07:13:25;;;;;;;8.50;7.60;;;15.50;99.90;;;;;;4988201;28;20249;-77
2021/09/17 07:15:52;;;;;;;7.90;7.00;;;15.50;99.90;;;;;;4989459;28;20197;-76
2021/09/17 07:18:19;;;;;;;8.67;7.30;;;15.60;99.90;;;;;;4991244;28;20224;-77
2021/09/17 07:20:47;;;;;;;8.63;6.80;;;15.70;99.90;;;;;;4986874;28;20257;-77
2021/09/17 07:23:16;;;;;;;12.77;11.73;;;15.90;99.90;;;;;;4987857;28;20259;-77
2021/09/17 07:25:43;;;;;;;12.53;11.47;;;16.00;99.90;;;;;;4973547;28;20215;-77
2021/09/17 07:28:09;;;;;;;13.13;12.13;;;16.00;99.90;;;;;;4988851;28;20226;-77
2021/09/17 07:30:36;;;;;;;12.10;11.20;;;16.10;99.90;;;;;;4973237;28;20670;-77
2021/09/17 07:33:03;;;;;;;11.57;10.67;;;16.10;99.90;;;;;;4988007;28;20284;-77
2021/09/17 07:35:30;;;;;;;13.00;11.87;;;16.30;99.90;;;;;;4989750;28;20733;-77
2021/09/17 07:37:58;;;;;;;12.80;11.77;;;16.30;99.90;;;;;;4969346;28;20222;-77
2021/09/17 07:40:27;;;;;;;13.20;12.00;;;16.20;99.90;;;;;;4968626;28;20267;-77
2021/09/17 07:42:54;;;;;;;13.90;12.80;;;16.30;99.90;;;;;;4964936;28;20218;-77
2021/09/17 07:45:23;;;;;;;13.90;12.90;;;16.40;99.90;;;;;;4986112;28;20244;-77
2021/09/17 07:47:50;;;;;;;14.10;13.00;;;16.50;99.90;;;;;;4983508;28;20234;-77
2021/09/17 07:50:17;;;;;;;14.93;13.73;;;16.50;99.90;;;;;;4987134;28;20257;-77
2021/09/17 07:52:45;;;;;;;14.40;13.30;;;16.60;99.90;;;;;;4990248;28;20796;-77
2021/09/17 07:55:13;;;;;;;16.73;15.53;;;16.60;99.90;;;;;;4971409;28;20210;-77
2021/09/17 07:57:41;;;;;;;8.30;7.13;;;16.60;99.90;;;;;;4970590;28;20238;-77
2021/09/17 08:00:11;;;;;;;8.20;7.33;;;16.70;99.90;;;;;;4970679;28;20204;-77
2021/09/17 08:02:41;;;;;;;9.10;7.63;;;16.90;99.90;;;;;;4985497;28;20262;-77
2021/09/17 08:05:09;;;;;;;8.43;7.10;;;17.00;99.90;;;;;;4985438;28;20242;-77
2021/09/17 08:07:36;;;;;;;7.37;6.50;;;17.20;99.90;;;;;;4985361;28;20202;-77
2021/09/17 08:10:04;;;;;;;7.00;6.20;;;17.30;99.90;;;;;;4985374;28;20271;-77
2021/09/17 08:12:31;;;;;;;8.70;6.47;;;17.30;99.90;;;;;;4985339;28;20255;-77
2021/09/17 08:14:59;;;;;;;15.70;14.60;;;17.40;99.90;;;;;;4989227;28;20258;-77
2021/09/17 08:17:26;;;;;;;16.10;14.87;;;17.50;99.90;;;;;;4972564;28;20220;-77
2021/09/17 08:19:53;;;;;;;15.57;14.57;;;17.60;99.90;;;;;;4986673;28;20559;-77
2021/09/17 08:22:20;;;;;;;7.43;6.73;;;17.70;99.90;;;;;;4989272;28;20685;-77
2021/09/17 08:24:47;;;;;;;8.13;7.20;;;17.80;99.90;;;;;;4985098;28;20295;-77
2021/09/17 08:27:13;;;;;;;7.30;6.53;;;17.80;99.90;;;;;;4988865;28;20264;-77
2021/09/17 08:29:40;;;;;;;6.07;5.57;;;17.80;99.90;;;;;;4985101;28;20576;-77
2021/09/17 08:32:09;;;;;;;15.70;14.43;;;17.90;99.90;;;;;;4985244;28;20205;-77
2021/09/17 08:34:36;;;;;;;14.87;13.77;;;18.10;99.90;;;;;;4985002;28;20221;-77
2021/09/17 08:37:07;;;;;;;14.37;13.47;;;18.20;99.90;;;;;;4981195;28;20580;-77
2021/09/17 08:39:36;;;;;;;6.27;5.67;;;18.40;99.90;;;;;;4965294;28;20202;-78
2021/09/17 08:42:05;;;;;;;6.20;5.60;;;18.40;99.90;;;;;;4987620;28;20190;-77
2021/09/17 08:44:34;;;;;;;6.33;5.53;;;18.50;99.90;;;;;;4989423;28;20214;-78
2021/09/17 08:47:02;;;;;;;7.97;5.60;;;18.50;99.90;;;;;;4986311;28;20213;-78
2021/09/17 08:49:31;;;;;;;7.93;7.13;;;18.70;99.90;;;;;;4967068;28;20219;-78
2021/09/17 08:51:58;;;;;;;14.00;13.00;;;18.80;99.90;;;;;;4988132;28;20269;-77
2021/09/17 08:54:25;;;;;;;12.53;11.73;;;18.80;99.90;;;;;;4984440;28;20209;-78
2021/09/17 08:56:52;;;;;;;10.80;10.00;;;18.70;99.90;;;;;;4984679;28;20190;-77
2021/09/17 08:59:19;;;;;;;5.53;4.77;;;18.70;99.90;;;;;;4987773;28;20227;-77
2021/09/17 09:01:46;;;;;;;5.37;4.87;;;18.80;99.90;;;;;;4984638;28;20259;-77
2021/09/17 09:04:14;;;;;;;4.70;4.03;;;18.80;99.90;;;;;;4985981;28;20772;-77
2021/09/17 09:06:46;;;;;;;11.87;11.07;;;18.80;99.90;;;;;;4988951;28;20262;-77
2021/09/17 09:09:16;;;;;;;11.73;10.93;;;19.00;99.90;;;;;;4987459;28;20722;-77
2021/09/17 09:11:46;;;;;;;4.53;4.13;;;19.10;99.90;;;;;;4984345;28;20649;-77
2021/09/17 09:14:14;;;;;;;4.83;4.33;;;19.30;99.90;;;;;;4967877;28;20273;-77
2021/09/17 09:16:42;;;;;;;4.50;3.97;;;19.30;99.90;;;;;;4984205;28;20279;-78
2021/09/17 09:19:17;;;;;;;11.17;10.10;;;19.50;99.90;;;;;;4983926;28;20274;-77
2021/09/17 09:21:46;;;;;;;4.60;4.20;;;19.70;99.90;;;;;;4971139;28;20199;-77
2021/09/17 09:24:14;;;;;;;12.73;11.90;;;19.70;99.90;;;;;;4984102;28;20254;-78
2021/09/17 09:26:41;;;;;;;13.47;12.43;;;19.50;99.90;;;;;;4984346;28;20205;-77
2021/09/17 09:29:26;;;;;;;12.10;11.30;;;19.50;99.90;;;;;;4968622;28;20200;-77
2021/09/17 09:31:53;;;;;;;12.13;11.33;;;19.70;99.90;;;;;;4970186;28;20210;-77
2021/09/17 09:34:24;;;;;;;11.63;10.93;;;19.90;99.90;;;;;;4974091;28;20256;-78
2021/09/17 09:37:06;;;;;;;11.80;11.00;;;20.10;99.90;;;;;;4980731;28;20612;-78
2021/09/17 09:39:52;;;;;;;13.20;12.30;;;20.10;99.90;;;;;;4987954;28;20223;-77
2021/09/17 09:42:21;;;;;;;12.40;11.60;;;20.00;99.90;;;;;;4970779;28;20209;-78
2021/09/17 09:45:07;;;;;;;13.00;12.00;;;19.90;99.90;;;;;;4971097;28;20737;-77
2021/09/17 09:47:36;;;;;;;12.40;11.60;;;19.90;99.90;;;;;;4970604;28;20603;-77
2021/09/17 09:50:08;;;;;;;12.70;11.80;;;19.90;99.90;;;;;;4985512;28;20580;-78
2021/09/17 09:52:37;;;;;;;12.60;11.70;;;19.80;99.90;;;;;;4966375;28;20209;-77
2021/09/17 09:55:04;;;;;;;12.83;11.93;;;19.90;99.90;;;;;;4986895;28;20200;-77
2021/09/17 09:57:32;;;;;;;13.50;12.50;;;20.10;99.90;;;;;;4983754;28;20292;-78
2021/09/17 10:00:03;;;;;;;13.70;12.67;;;20.00;99.90;;;;;;4983699;28;20745;-78
2021/09/17 10:02:39;;;;;;;13.67;12.77;;;20.10;99.90;;;;;;4983662;28;20634;-77
2021/09/17 10:05:07;;;;;;;13.20;12.40;;;20.10;99.90;;;;;;4986359;28;20635;-77
2021/09/17 10:07:36;;;;;;;12.50;11.70;;;20.10;99.90;;;;;;4970979;28;20213;-77
2021/09/17 10:10:04;;;;;;;12.50;11.70;;;20.30;99.90;;;;;;4966254;28;20268;-77
2021/09/17 10:12:31;;;;;;;12.90;11.97;;;20.30;99.90;;;;;;4965770;28;20209;-77
2021/09/17 10:15:00;;;;;;;12.23;11.43;;;20.40;99.90;;;;;;4985342;28;20196;-77
2021/09/17 10:17:30;;;;;;;13.40;12.40;;;20.50;99.90;;;;;;4967598;28;20228;-78
2021/09/17 10:19:59;;;;;;;13.10;12.20;;;20.80;99.90;;;;;;4984316;28;20237;-77
2021/09/17 10:22:31;;;;;;;12.03;11.23;;;21.00;99.90;;;;;;4983572;28;20193;-78
2021/09/17 10:25:15;;;;;;;12.20;11.40;;;21.10;99.90;;;;;;4983702;28;20211;-78
2021/09/17 10:27:44;;;;;;;12.53;11.70;;;21.20;99.90;;;;;;4963924;28;20610;-77
2021/09/17 10:30:13;;;;;;;12.73;11.60;;;21.20;99.90;;;;;;4985402;28;20260;-77
2021/09/17 10:32:49;;;;;;;12.67;11.87;;;21.30;99.90;;;;;;4988211;28;20613;-77
2021/09/17 10:35:19;;;;;;;10.63;9.80;;;21.30;99.90;;;;;;4963196;28;20402;-78
2021/09/17 10:37:57;;;;;;;4.53;4.13;;;21.40;99.90;;;;;;4970752;28;20190;-78
2021/09/17 10:40:45;;;;;;;4.43;4.03;;;21.50;99.90;;;;;;4970730;28;20205;-78
2021/09/17 10:43:38;;;;;;;9.97;9.17;;;21.50;99.90;;;;;;4986664;28;20217;-77
2021/09/17 10:46:06;;;;;;;11.73;10.87;;;21.30;99.90;;;;;;4987400;28;20263;-78
2021/09/17 10:48:55;;;;;;;11.30;10.50;;;20.90;99.90;;;;;;4986867;28;20201;-78
2021/09/17 10:51:30;;;;;;;10.53;9.93;;;20.60;99.90;;;;;;4986975;28;20205;-77
2021/09/17 10:53:59;;;;;;;10.30;9.60;;;20.50;99.90;;;;;;4982247;28;20295;-77
2021/09/17 10:56:28;;;;;;;10.13;9.53;;;20.30;99.90;;;;;;4988706;28;20421;-78
2021/09/17 10:59:14;;;;;;;10.20;9.60;;;20.20;99.90;;;;;;4986671;28;20896;-78
2021/09/17 11:01:53;;;;;;;10.67;9.97;;;20.20;99.90;;;;;;4989611;28;20225;-77
2021/09/17 11:04:25;;;;;;;10.33;9.63;;;20.20;99.90;;;;;;4986728;28;20239;-77
2021/09/17 11:06:53;;;;;;;9.97;9.37;;;20.10;99.90;;;;;;4984467;28;20194;-77
2021/09/17 11:09:40;;;;;;;10.47;9.87;;;20.10;99.90;;;;;;4987002;28;20193;-77
2021/09/17 11:12:19;;;;;;;10.37;9.77;;;20.00;99.90;;;;;;4993620;28;20193;-77
2021/09/17 11:15:07;;;;;;;10.60;10.00;;;20.10;99.90;;;;;;4993357;28;20216;-77
2021/09/17 11:17:39;;;;;;;10.60;10.00;;;20.20;99.90;;;;;;4988742;28;20200;-77
2021/09/17 11:20:08;;;;;;;10.30;9.70;;;20.20;99.90;;;;;;4970867;28;20718;-78
2021/09/17 11:22:57;;;;;;;10.70;10.10;;;20.20;99.90;;;;;;4972122;28;20737;-77
2021/09/17 11:25:27;;;;;;;11.30;10.60;;;20.40;99.90;;;;;;4983042;28;20205;-77
2021/09/17 11:27:56;;;;;;;10.90;10.20;;;20.20;99.90;;;;;;4957562;28;20590;-77
2021/09/17 11:30:24;;;;;;;10.97;10.30;;;20.10;99.90;;;;;;4973381;28;20206;-77
2021/09/17 11:32:52;;;;;;;10.63;9.97;;;20.00;99.90;;;;;;4968602;28;20753;-77
2021/09/17 11:35:19;;;;;;;10.40;9.70;;;20.00;99.90;;;;;;4990096;28;20588;-77
2021/09/17 11:37:54;;;;;;;10.10;9.50;;;20.00;99.90;;;;;;4976939;28;20201;-77
2021/09/17 11:40:21;;;;;;;10.57;9.73;;;20.00;99.90;;;;;;4994185;28;20373;-77
2021/09/17 11:42:48;;;;;;;10.00;9.40;;;20.10;99.90;;;;;;4976782;28;20247;-78
2021/09/17 11:45:19;;;;;;;10.20;9.50;;;20.10;99.90;;;;;;4994180;28;20196;-77
2021/09/17 11:47:48;;;;;;;10.17;9.57;;;20.10;99.90;;;;;;4991925;28;20193;-78
2021/09/17 11:50:16;;;;;;;10.20;9.40;;;20.00;99.90;;;;;;4987361;28;20201;-77
2021/09/17 11:52:45;;;;;;;10.10;9.43;;;20.00;99.90;;;;;;4973077;28;20200;-77
2021/09/17 11:55:15;;;;;;;10.57;9.93;;;20.10;99.90;;;;;;4988435;28;20201;-77
2021/09/17 11:57:43;;;;;;;10.60;9.80;;;19.90;99.90;;;;;;4985577;28;20207;-78
2021/09/17 12:00:12;;;;;;;9.97;9.37;;;19.90;99.90;;;;;;4968211;28;20286;-77
2021/09/17 12:02:40;;;;;;;10.50;9.80;;;20.10;99.90;;;;;;4985273;28;20628;-78
2021/09/17 12:05:13;;;;;;;9.80;9.20;;;20.10;99.90;;;;;;4968284;28;20200;-78
2021/09/17 12:07:41;;;;;;;9.90;9.23;;;20.20;99.90;;;;;;4985536;28;20192;-77
2021/09/17 12:10:09;;;;;;;10.17;9.47;;;20.10;99.90;;;;;;4987699;28;20253;-77
2021/09/17 12:12:38;;;;;;;10.00;9.30;;;20.30;99.90;;;;;;4990116;28;20195;-77
2021/09/17 12:15:06;;;;;;;9.57;8.97;;;20.30;99.90;;;;;;4987140;28;20621;-77
2021/09/17 12:17:33;;;;;;;9.90;9.20;;;20.50;99.90;;;;;;4972562;28;20202;-78
2021/09/17 12:20:05;;;;;;;10.23;9.43;;;20.60;99.90;;;;;;4969127;28;20698;-77
2021/09/17 12:22:35;;;;;;;10.43;9.53;;;20.70;99.90;;;;;;4970967;28;20205;-78
2021/09/17 12:25:11;;;;;;;9.93;9.23;;;20.70;99.90;;;;;;4987453;28;20200;-77
2021/09/17 12:27:39;;;;;;;10.90;10.20;;;20.80;99.90;;;;;;4985174;28;20543;-78
2021/09/17 12:30:08;;;;;;;10.77;10.03;;;20.70;99.90;;;;;;4990038;28;20240;-78
2021/09/17 12:32:36;;;;;;;11.27;10.37;;;20.70;99.90;;;;;;4984955;28;20205;-78
2021/09/17 12:35:07;;;;;;;11.63;10.67;;;20.70;99.90;;;;;;4967690;28;20201;-78
2021/09/17 12:37:35;;;;;;;11.57;10.70;;;20.70;99.90;;;;;;4971520;28;20208;-77
2021/09/17 12:40:13;;;;;;;10.77;10.07;;;20.70;99.90;;;;;;4984773;28;20220;-77